Wahkon, Minnesota
Current Conditions -  °F | °C
As of 2:55 AM on Thursday 23 Oct 2014 (Local Time) from KJMR Reporting Station
Broken Clouds Broken Clouds  
Wind Chill: 48°   Ceiling: 2400
Heat Index: 48°   Visibility: 10mi
Dew Point: 43°   Wind: 0mph
Humidity: 82%   Direction: NA
Pressure: 29.99"   Gusts: NA
Location:  46.12°N, 93.52°W
Report Text: KJMR 230755Z AUTO 00000KT 10SM SCT013 BKN024 09/06 A2999 RMK AO2 P0001
Loading
Personal Weather Stations






























Interactive Weather Map
Tropical Storm Tracking
New forecast layout! Learn more

10-Day Weather Forecast

Advertisements
Track Severe Weather on mobile